Hualapai, Arizona
Current Conditions -  °F | °C
As of 10:54 AM on Friday 19 Dec 2014 (Local Time) from KGCN Reporting Station
Clear Clear  
Wind Chill: 38°   Ceiling: Unl
Heat Index: 38°   Visibility: 10mi
Dew Point: 24°   Wind: 0mph
Humidity: 57%   Direction: NA
Pressure: 30.26"   Gusts: NA
Location:  35.9°N, 113.11°W
Report Text: KGCN 191754Z 00000KT 10SM CLR 03/M04 A3026 RMK AO2 SLP252 T00331044 10033 21100 51002 $
Loading
Personal Weather Stations






























Interactive Weather Map New forecast layout! Learn more

10-Day Weather Forecast

Advertisements
Track Severe Weather on mobile